sensor_id;sensor_type;location;lat;lon;timestamp;pressure;altitude;pressure_sealevel;temperature;humidity
70133;BME280;57495;49.922;7.966;2023-04-05T00:00:47;100671.94;;;3.34;63.75
70133;BME280;57495;49.922;7.966;2023-04-05T00:02:48;100676.69;;;3.10;63.60
70133;BME280;57495;49.922;7.966;2023-04-05T00:04:49;100675.31;;;3.20;65.00
70133;BME280;57495;49.922;7.966;2023-04-05T00:06:56;100672.81;;;3.17;64.25
70133;BME280;57495;49.922;7.966;2023-04-05T00:08:59;100670.94;;;3.19;65.13
70133;BME280;57495;49.922;7.966;2023-04-05T00:11:00;100671.78;;;3.20;66.02
70133;BME280;57495;49.922;7.966;2023-04-05T00:13:02;100670.47;;;3.28;66.17
70133;BME280;57495;49.922;7.966;2023-04-05T00:15:04;100670.00;;;3.20;66.64
70133;BME280;57495;49.922;7.966;2023-04-05T00:17:06;100669.25;;;3.01;67.35
70133;BME280;57495;49.922;7.966;2023-04-05T00:19:08;100673.88;;;2.96;68.24
70133;BME280;57495;49.922;7.966;2023-04-05T00:21:11;100669.25;;;2.83;68.49
70133;BME280;57495;49.922;7.966;2023-04-05T00:23:13;100662.25;;;2.82;66.80
70133;BME280;57495;49.922;7.966;2023-04-05T00:25:16;100666.44;;;2.86;68.19
70133;BME280;57495;49.922;7.966;2023-04-05T00:27:18;100661.31;;;3.01;67.09
70133;BME280;57495;49.922;7.966;2023-04-05T00:29:20;100658.03;;;2.96;67.55
70133;BME280;57495;49.922;7.966;2023-04-05T00:31:21;100668.47;;;2.99;65.77
70133;BME280;57495;49.922;7.966;2023-04-05T00:33:24;100659.13;;;3.09;66.93
70133;BME280;57495;49.922;7.966;2023-04-05T00:35:26;100654.72;;;3.09;67.85
70133;BME280;57495;49.922;7.966;2023-04-05T00:37:27;100660.75;;;3.12;67.75
70133;BME280;57495;49.922;7.966;2023-04-05T00:39:28;100661.38;;;3.17;67.48
70133;BME280;57495;49.922;7.966;2023-04-05T00:41:30;100667.53;;;3.17;67.16
70133;BME280;57495;49.922;7.966;2023-04-05T00:43:31;100662.25;;;3.17;67.54
70133;BME280;57495;49.922;7.966;2023-04-05T00:45:33;100665.03;;;3.14;67.29
70133;BME280;57495;49.922;7.966;2023-04-05T00:47:35;100667.50;;;3.00;66.67
70133;BME280;57495;49.922;7.966;2023-04-05T00:49:38;100659.13;;;3.09;68.24
70133;BME280;57495;49.922;7.966;2023-04-05T00:51:39;100652.47;;;3.02;66.65
70133;BME280;57495;49.922;7.966;2023-04-05T00:53:41;100657.16;;;3.13;67.82
70133;BME280;57495;49.922;7.966;2023-04-05T00:55:45;100656.41;;;3.10;68.07
70133;BME280;57495;49.922;7.966;2023-04-05T00:57:47;100653.25;;;3.04;67.66
70133;BME280;57495;49.922;7.966;2023-04-05T00:59:49;100655.69;;;3.07;67.06
70133;BME280;57495;49.922;7.966;2023-04-05T01:01:55;100651.34;;;2.88;68.18
70133;BME280;57495;49.922;7.966;2023-04-05T01:04:02;100647.94;;;2.86;68.44
70133;BME280;57495;49.922;7.966;2023-04-05T01:06:19;100653.41;;;2.83;68.53
70133;BME280;57495;49.922;7.966;2023-04-05T01:08:28;100652.31;;;2.87;68.76
70133;BME280;57495;49.922;7.966;2023-04-05T01:10:35;100651.47;;;2.87;69.64
70133;BME280;57495;49.922;7.966;2023-04-05T01:12:40;100643.16;;;2.95;69.63
70133;BME280;57495;49.922;7.966;2023-04-05T01:14:46;100641.50;;;2.92;69.63
70133;BME280;57495;49.922;7.966;2023-04-05T01:16:49;100645.09;;;2.91;69.52
70133;BME280;57495;49.922;7.966;2023-04-05T01:18:57;100642.66;;;2.86;69.47
70133;BME280;57495;49.922;7.966;2023-04-05T01:21:36;100638.41;;;2.84;69.06
70133;BME280;57495;49.922;7.966;2023-04-05T01:23:52;100635.84;;;2.82;68.66
70133;BME280;57495;49.922;7.966;2023-04-05T01:26:27;100634.53;;;2.91;68.32
70133;BME280;57495;49.922;7.966;2023-04-05T01:28:46;100628.63;;;2.86;68.34
70133;BME280;57495;49.922;7.966;2023-04-05T01:30:56;100629.00;;;2.78;68.88
70133;BME280;57495;49.922;7.966;2023-04-05T01:33:11;100626.28;;;2.80;69.29
70133;BME280;57495;49.922;7.966;2023-04-05T01:35:20;100623.25;;;2.70;70.11
70133;BME280;57495;49.922;7.966;2023-04-05T01:37:25;100612.59;;;2.71;70.03
70133;BME280;57495;49.922;7.966;2023-04-05T01:39:27;100609.19;;;2.69;69.83
70133;BME280;57495;49.922;7.966;2023-04-05T01:41:30;100609.34;;;2.66;69.91
70133;BME280;57495;49.922;7.966;2023-04-05T01:43:32;100612.38;;;2.59;69.19
70133;BME280;57495;49.922;7.966;2023-04-05T01:45:33;100601.19;;;2.36;70.05
70133;BME280;57495;49.922;7.966;2023-04-05T01:47:36;100609.88;;;2.38;70.20
70133;BME280;57495;49.922;7.966;2023-04-05T01:49:37;100610.97;;;2.34;70.39
70133;BME280;57495;49.922;7.966;2023-04-05T01:51:38;100613.28;;;2.40;70.62
70133;BME280;57495;49.922;7.966;2023-04-05T01:53:41;100610.38;;;2.46;69.96
70133;BME280;57495;49.922;7.966;2023-04-05T01:55:42;100607.09;;;2.41;70.13
70133;BME280;57495;49.922;7.966;2023-04-05T01:57:43;100609.72;;;2.41;69.89
70133;BME280;57495;49.922;7.966;2023-04-05T01:59:45;100611.59;;;2.39;69.22
70133;BME280;57495;49.922;7.966;2023-04-05T02:01:46;100610.44;;;2.45;69.73
70133;BME280;57495;49.922;7.966;2023-04-05T02:03:49;100619.84;;;2.50;69.18
70133;BME280;57495;49.922;7.966;2023-04-05T02:05:50;100620.03;;;2.46;69.21
70133;BME280;57495;49.922;7.966;2023-04-05T02:07:52;100611.13;;;2.48;69.53
70133;BME280;57495;49.922;7.966;2023-04-05T02:09:53;100609.09;;;2.36;69.17
70133;BME280;57495;49.922;7.966;2023-04-05T02:11:54;100611.53;;;2.41;69.64
70133;BME280;57495;49.922;7.966;2023-04-05T02:13:56;100603.03;;;2.34;69.69
70133;BME280;57495;49.922;7.966;2023-04-05T02:15:57;100607.69;;;2.29;69.59
70133;BME280;57495;49.922;7.966;2023-04-05T02:17:59;100606.00;;;2.28;69.81
70133;BME280;57495;49.922;7.966;2023-04-05T02:20:03;100606.22;;;2.23;70.31
70133;BME280;57495;49.922;7.966;2023-04-05T02:22:06;100596.75;;;2.19;70.21
70133;BME280;57495;49.922;7.966;2023-04-05T02:24:08;100605.50;;;2.20;70.34
70133;BME280;57495;49.922;7.966;2023-04-05T02:26:09;100607.66;;;2.11;70.60
70133;BME280;57495;49.922;7.966;2023-04-05T02:28:10;100595.84;;;2.01;70.87
70133;BME280;57495;49.922;7.966;2023-04-05T02:30:12;100592.56;;;1.96;71.03
70133;BME280;57495;49.922;7.966;2023-04-05T02:32:14;100590.72;;;1.98;71.10
70133;BME280;57495;49.922;7.966;2023-04-05T02:34:16;100599.69;;;1.94;71.43
70133;BME280;57495;49.922;7.966;2023-04-05T02:36:18;100599.84;;;1.91;71.26
70133;BME280;57495;49.922;7.966;2023-04-05T02:38:21;100599.41;;;2.00;71.00
70133;BME280;57495;49.922;7.966;2023-04-05T02:40:22;100592.94;;;2.07;70.31
70133;BME280;57495;49.922;7.966;2023-04-05T02:42:24;100585.94;;;2.06;70.32
70133;BME280;57495;49.922;7.966;2023-04-05T02:44:27;100586.31;;;1.99;70.38
70133;BME280;57495;49.922;7.966;2023-04-05T02:46:28;100586.44;;;1.96;70.14
70133;BME280;57495;49.922;7.966;2023-04-05T02:48:30;100596.59;;;1.86;70.41
70133;BME280;57495;49.922;7.966;2023-04-05T02:50:31;100588.09;;;1.98;70.00
70133;BME280;57495;49.922;7.966;2023-04-05T02:52:34;100587.09;;;2.01;70.04
70133;BME280;57495;49.922;7.966;2023-04-05T02:54:36;100590.56;;;2.01;70.32
70133;BME280;57495;49.922;7.966;2023-04-05T02:56:38;100589.84;;;1.98;70.21
70133;BME280;57495;49.922;7.966;2023-04-05T02:58:39;100583.53;;;1.83;70.64
70133;BME280;57495;49.922;7.966;2023-04-05T03:00:44;100586.34;;;1.80;71.37
70133;BME280;57495;49.922;7.966;2023-04-05T03:02:46;100587.91;;;1.65;72.51
70133;BME280;57495;49.922;7.966;2023-04-05T03:04:47;100595.47;;;1.72;72.40
70133;BME280;57495;49.922;7.966;2023-04-05T03:06:48;100595.19;;;1.60;74.26
70133;BME280;57495;49.922;7.966;2023-04-05T03:08:52;100602.00;;;1.64;73.57
70133;BME280;57495;49.922;7.966;2023-04-05T03:10:55;100602.31;;;1.58;73.47
70133;BME280;57495;49.922;7.966;2023-04-05T03:12:56;100608.13;;;1.64;73.87
70133;BME280;57495;49.922;7.966;2023-04-05T03:14:57;100596.25;;;1.56;74.17
70133;BME280;57495;49.922;7.966;2023-04-05T03:16:59;100592.91;;;1.52;75.21
70133;BME280;57495;49.922;7.966;2023-04-05T03:19:01;100592.59;;;1.58;75.53
70133;BME280;57495;49.922;7.966;2023-04-05T03:21:04;100587.63;;;1.52;75.74
70133;BME280;57495;49.922;7.966;2023-04-05T03:23:11;100597.22;;;1.53;75.15
70133;BME280;57495;49.922;7.966;2023-04-05T03:25:13;100597.53;;;1.47;74.75
70133;BME280;57495;49.922;7.966;2023-04-05T03:27:16;100587.63;;;1.52;74.81
70133;BME280;57495;49.922;7.966;2023-04-05T03:29:17;100589.63;;;1.47;74.88
70133;BME280;57495;49.922;7.966;2023-04-05T03:31:19;100586.81;;;1.50;74.59
70133;BME280;57495;49.922;7.966;2023-04-05T03:33:20;100585.31;;;1.44;74.74
70133;BME280;57495;49.922;7.966;2023-04-05T03:35:22;100591.31;;;1.48;74.59
70133;BME280;57495;49.922;7.966;2023-04-05T03:37:24;100592.81;;;1.53;74.73
70133;BME280;57495;49.922;7.966;2023-04-05T03:39:25;100587.34;;;1.58;74.68
70133;BME280;57495;49.922;7.966;2023-04-05T03:41:28;100590.53;;;1.46;74.25
70133;BME280;57495;49.922;7.966;2023-04-05T03:43:29;100593.50;;;1.38;73.65
70133;BME280;57495;49.922;7.966;2023-04-05T03:45:32;100591.94;;;1.15;74.51
70133;BME280;57495;49.922;7.966;2023-04-05T03:47:33;100589.44;;;1.12;75.06
70133;BME280;57495;49.922;7.966;2023-04-05T03:49:35;100581.94;;;1.03;74.14
70133;BME280;57495;49.922;7.966;2023-04-05T03:51:36;100581.88;;;1.04;74.47
70133;BME280;57495;49.922;7.966;2023-04-05T03:53:38;100590.91;;;0.99;75.05
70133;BME280;57495;49.922;7.966;2023-04-05T03:55:41;100584.63;;;1.01;75.39
70133;BME280;57495;49.922;7.966;2023-04-05T03:57:44;100584.16;;;1.12;74.58
70133;BME280;57495;49.922;7.966;2023-04-05T03:59:45;100590.44;;;1.09;73.94
70133;BME280;57495;49.922;7.966;2023-04-05T04:01:46;100591.34;;;1.08;73.80
70133;BME280;57495;49.922;7.966;2023-04-05T04:03:48;100587.69;;;1.11;73.49
70133;BME280;57495;49.922;7.966;2023-04-05T04:05:49;100589.56;;;1.09;73.61
70133;BME280;57495;49.922;7.966;2023-04-05T04:07:51;100588.09;;;1.02;75.44
70133;BME280;57495;49.922;7.966;2023-04-05T04:09:52;100582.72;;;1.05;75.53
70133;BME280;57495;49.922;7.966;2023-04-05T04:11:55;100588.03;;;1.03;74.79
70133;BME280;57495;49.922;7.966;2023-04-05T04:13:58;100586.47;;;0.99;74.33
70133;BME280;57495;49.922;7.966;2023-04-05T04:15:59;100579.09;;;1.07;74.95
70133;BME280;57495;49.922;7.966;2023-04-05T04:18:01;100577.56;;;1.02;74.72
70133;BME280;57495;49.922;7.966;2023-04-05T04:20:04;100578.66;;;0.98;74.69
70133;BME280;57495;49.922;7.966;2023-04-05T04:22:10;100583.41;;;0.89;75.23
70133;BME280;57495;49.922;7.966;2023-04-05T04:24:12;100589.78;;;0.84;76.25
70133;BME280;57495;49.922;7.966;2023-04-05T04:26:17;100593.94;;;0.89;77.01
70133;BME280;57495;49.922;7.966;2023-04-05T04:28:26;100582.53;;;0.89;77.56
70133;BME280;57495;49.922;7.966;2023-04-05T04:30:28;100583.81;;;0.80;78.91
70133;BME280;57495;49.922;7.966;2023-04-05T04:32:30;100585.38;;;0.84;78.95
70133;BME280;57495;49.922;7.966;2023-04-05T04:34:45;100589.84;;;0.82;80.22
70133;BME280;57495;49.922;7.966;2023-04-05T04:36:48;100585.97;;;0.91;80.00
70133;BME280;57495;49.922;7.966;2023-04-05T04:38:59;100581.34;;;0.96;78.45
70133;BME280;57495;49.922;7.966;2023-04-05T04:41:05;100583.00;;;0.99;77.54
70133;BME280;57495;49.922;7.966;2023-04-05T04:43:09;100585.16;;;0.89;75.94
70133;BME280;57495;49.922;7.966;2023-04-05T04:45:13;100578.53;;;0.80;75.23
70133;BME280;57495;49.922;7.966;2023-04-05T04:47:17;100578.53;;;0.80;74.93
70133;BME280;57495;49.922;7.966;2023-04-05T04:49:20;100583.53;;;0.86;74.61
70133;BME280;57495;49.922;7.966;2023-04-05T04:51:23;100581.69;;;0.88;74.48
70133;BME280;57495;49.922;7.966;2023-04-05T04:53:25;100585.38;;;0.84;74.51
70133;BME280;57495;49.922;7.966;2023-04-05T04:55:26;100588.66;;;0.89;74.58
70133;BME280;57495;49.922;7.966;2023-04-05T04:57:28;100584.47;;;0.85;74.47
70133;BME280;57495;49.922;7.966;2023-04-05T04:59:30;100586.16;;;0.86;74.43
70133;BME280;57495;49.922;7.966;2023-04-05T05:01:33;100589.06;;;0.80;74.92
70133;BME280;57495;49.922;7.966;2023-04-05T05:03:36;100593.84;;;0.70;75.76
70133;BME280;57495;49.922;7.966;2023-04-05T05:05:41;100592.59;;;0.79;75.79
70133;BME280;57495;49.922;7.966;2023-04-05T05:07:43;100598.47;;;0.65;76.47
70133;BME280;57495;49.922;7.966;2023-04-05T05:09:45;100600.22;;;0.65;76.88
70133;BME280;57495;49.922;7.966;2023-04-05T05:11:48;100598.41;;;0.67;76.05
70133;BME280;57495;49.922;7.966;2023-04-05T05:13:49;100597.22;;;0.74;76.75
70133;BME280;57495;49.922;7.966;2023-04-05T05:15:51;100599.84;;;0.74;77.09
70133;BME280;57495;49.922;7.966;2023-04-05T05:17:52;100596.97;;;0.80;77.06
70133;BME280;57495;49.922;7.966;2023-04-05T05:19:56;100591.31;;;0.89;79.23
70133;BME280;57495;49.922;7.966;2023-04-05T05:21:59;100599.19;;;0.89;79.95
70133;BME280;57495;49.922;7.966;2023-04-05T05:24:00;100594.19;;;0.83;79.76
70133;BME280;57495;49.922;7.966;2023-04-05T05:26:02;100597.94;;;0.77;79.27
70133;BME280;57495;49.922;7.966;2023-04-05T05:28:03;100596.19;;;0.57;81.75
70133;BME280;57495;49.922;7.966;2023-04-05T05:30:06;100593.66;;;0.54;81.35
70133;BME280;57495;49.922;7.966;2023-04-05T05:32:08;100590.97;;;0.56;81.00
70133;BME280;57495;49.922;7.966;2023-04-05T05:34:13;100594.06;;;0.66;79.98
70133;BME280;57495;49.922;7.966;2023-04-05T05:36:16;100591.31;;;0.69;79.21
70133;BME280;57495;49.922;7.966;2023-04-05T05:38:19;100590.13;;;0.76;79.83
70133;BME280;57495;49.922;7.966;2023-04-05T05:40:22;100585.78;;;0.75;79.81
70133;BME280;57495;49.922;7.966;2023-04-05T05:42:26;100592.50;;;0.82;80.61
70133;BME280;57495;49.922;7.966;2023-04-05T05:44:27;100592.22;;;0.88;80.15
70133;BME280;57495;49.922;7.966;2023-04-05T05:46:29;100602.75;;;0.88;81.01
70133;BME280;57495;49.922;7.966;2023-04-05T05:48:30;100595.63;;;0.90;80.36
70133;BME280;57495;49.922;7.966;2023-04-05T05:50:32;100606.03;;;0.93;80.00
70133;BME280;57495;49.922;7.966;2023-04-05T05:52:35;100592.09;;;0.91;80.69
70133;BME280;57495;49.922;7.966;2023-04-05T05:54:36;100593.25;;;1.05;80.65
70133;BME280;57495;49.922;7.966;2023-04-05T05:56:37;100594.56;;;1.15;79.83
70133;BME280;57495;49.922;7.966;2023-04-05T05:58:39;100599.59;;;1.01;81.09
70133;BME280;57495;49.922;7.966;2023-04-05T06:00:41;100597.75;;;1.22;79.95
70133;BME280;57495;49.922;7.966;2023-04-05T06:02:43;100605.47;;;1.26;79.68
70133;BME280;57495;49.922;7.966;2023-04-05T06:04:44;100602.63;;;1.31;79.90
70133;BME280;57495;49.922;7.966;2023-04-05T06:06:46;100607.41;;;1.42;80.21
70133;BME280;57495;49.922;7.966;2023-04-05T06:08:49;100606.56;;;1.41;80.42
70133;BME280;57495;49.922;7.966;2023-04-05T06:10:51;100605.50;;;1.64;79.36
70133;BME280;57495;49.922;7.966;2023-04-05T06:12:52;100609.25;;;1.78;78.66
70133;BME280;57495;49.922;7.966;2023-04-05T06:14:54;100612.53;;;1.83;78.57
70133;BME280;57495;49.922;7.966;2023-04-05T06:16:55;100615.69;;;1.91;77.66
70133;BME280;57495;49.922;7.966;2023-04-05T06:18:57;100608.38;;;1.96;78.26
70133;BME280;57495;49.922;7.966;2023-04-05T06:20:58;100608.44;;;2.13;77.13
70133;BME280;57495;49.922;7.966;2023-04-05T06:23:00;100605.66;;;2.17;77.70
70133;BME280;57495;49.922;7.966;2023-04-05T06:25:03;100611.72;;;2.19;77.34
70133;BME280;57495;49.922;7.966;2023-04-05T06:27:04;100611.69;;;1.63;78.23
70133;BME280;57495;49.922;7.966;2023-04-05T06:29:06;100612.53;;;1.83;79.49
70133;BME280;57495;49.922;7.966;2023-04-05T06:31:07;100609.03;;;2.01;78.56
70133;BME280;57495;49.922;7.966;2023-04-05T06:33:09;100621.31;;;2.20;77.36
70133;BME280;57495;49.922;7.966;2023-04-05T06:35:11;100618.56;;;2.40;76.93
70133;BME280;57495;49.922;7.966;2023-04-05T06:37:13;100619.66;;;1.81;79.34
70133;BME280;57495;49.922;7.966;2023-04-05T06:39:14;100608.31;;;2.17;78.29
70133;BME280;57495;49.922;7.966;2023-04-05T06:41:17;100614.31;;;2.38;77.26
70133;BME280;57495;49.922;7.966;2023-04-05T06:43:19;100615.72;;;2.62;76.82
70133;BME280;57495;49.922;7.966;2023-04-05T06:45:20;100609.44;;;2.82;76.24
70133;BME280;57495;49.922;7.966;2023-04-05T06:47:21;100610.50;;;2.96;76.15
70133;BME280;57495;49.922;7.966;2023-04-05T06:49:23;100605.22;;;2.96;75.63
70133;BME280;57495;49.922;7.966;2023-04-05T06:51:24;100608.06;;;3.08;76.01
70133;BME280;57495;49.922;7.966;2023-04-05T06:53:28;100606.59;;;3.20;75.18
70133;BME280;57495;49.922;7.966;2023-04-05T06:55:30;100610.78;;;3.40;74.16
70133;BME280;57495;49.922;7.966;2023-04-05T06:57:32;100611.06;;;3.52;73.31
70133;BME280;57495;49.922;7.966;2023-04-05T06:59:34;100609.97;;;3.72;72.40
70133;BME280;57495;49.922;7.966;2023-04-05T07:01:35;100610.50;;;3.78;72.88
70133;BME280;57495;49.922;7.966;2023-04-05T07:03:37;100610.69;;;3.91;72.24
70133;BME280;57495;49.922;7.966;2023-04-05T07:05:38;100615.47;;;4.00;73.61
70133;BME280;57495;49.922;7.966;2023-04-05T07:07:41;100615.56;;;4.15;71.49
70133;BME280;57495;49.922;7.966;2023-04-05T07:09:43;100612.69;;;4.34;70.83
70133;BME280;57495;49.922;7.966;2023-04-05T07:11:45;100602.06;;;4.50;72.75
70133;BME280;57495;49.922;7.966;2023-04-05T07:13:47;100605.81;;;4.45;72.22
70133;BME280;57495;49.922;7.966;2023-04-05T07:15:49;100599.47;;;4.64;70.96
70133;BME280;57495;49.922;7.966;2023-04-05T07:17:51;100600.19;;;4.52;70.49
70133;BME280;57495;49.922;7.966;2023-04-05T07:19:52;100598.97;;;4.57;72.75
70133;BME280;57495;49.922;7.966;2023-04-05T07:21:54;100605.56;;;4.80;70.52
70133;BME280;57495;49.922;7.966;2023-04-05T07:23:56;100594.41;;;4.90;70.87
70133;BME280;57495;49.922;7.966;2023-04-05T07:26:00;100593.28;;;5.08;70.12
70133;BME280;57495;49.922;7.966;2023-04-05T07:28:03;100592.16;;;5.27;70.58
70133;BME280;57495;49.922;7.966;2023-04-05T07:30:07;100587.81;;;5.40;67.54
70133;BME280;57495;49.922;7.966;2023-04-05T07:32:09;100594.63;;;5.44;66.77
70133;BME280;57495;49.922;7.966;2023-04-05T07:34:11;100584.78;;;5.46;68.07
70133;BME280;57495;49.922;7.966;2023-04-05T07:36:13;100586.28;;;5.65;66.60
70133;BME280;57495;49.922;7.966;2023-04-05T07:38:14;100581.59;;;5.97;65.79
70133;BME280;57495;49.922;7.966;2023-04-05T07:40:16;100583.19;;;5.99;64.88
70133;BME280;57495;49.922;7.966;2023-04-05T07:42:17;100592.50;;;6.19;63.31
70133;BME280;57495;49.922;7.966;2023-04-05T07:44:20;100588.81;;;6.22;64.96
70133;BME280;57495;49.922;7.966;2023-04-05T07:46:23;100586.25;;;6.48;64.01
70133;BME280;57495;49.922;7.966;2023-04-05T07:48:26;100591.44;;;6.49;63.68
70133;BME280;57495;49.922;7.966;2023-04-05T07:50:27;100587.31;;;6.58;64.45
70133;BME280;57495;49.922;7.966;2023-04-05T07:52:29;100588.00;;;6.74;63.74
70133;BME280;57495;49.922;7.966;2023-04-05T07:54:30;100590.13;;;6.82;60.71
70133;BME280;57495;49.922;7.966;2023-04-05T07:56:32;100594.16;;;6.88;61.58
70133;BME280;57495;49.922;7.966;2023-04-05T07:58:35;100603.19;;;6.72;61.27
70133;BME280;57495;49.922;7.966;2023-04-05T08:00:39;100597.44;;;6.78;61.12
70133;BME280;57495;49.922;7.966;2023-04-05T08:02:42;100596.09;;;6.86;59.54
70133;BME280;57495;49.922;7.966;2023-04-05T08:04:44;100599.06;;;7.07;58.72
70133;BME280;57495;49.922;7.966;2023-04-05T08:06:46;100599.41;;;7.41;58.02
70133;BME280;57495;49.922;7.966;2023-04-05T08:08:47;100586.06;;;7.53;56.69
70133;BME280;57495;49.922;7.966;2023-04-05T08:10:49;100586.47;;;7.60;56.01
70133;BME280;57495;49.922;7.966;2023-04-05T08:12:50;100586.59;;;7.96;55.68
70133;BME280;57495;49.922;7.966;2023-04-05T08:14:52;100581.63;;;8.15;56.78
70133;BME280;57495;49.922;7.966;2023-04-05T08:16:53;100581.16;;;8.45;59.05
70133;BME280;57495;49.922;7.966;2023-04-05T08:18:56;100580.50;;;8.66;57.96
70133;BME280;57495;49.922;7.966;2023-04-05T08:20:57;100570.47;;;8.69;56.27
70133;BME280;57495;49.922;7.966;2023-04-05T08:22:59;100577.28;;;8.74;53.24
70133;BME280;57495;49.922;7.966;2023-04-05T08:25:00;100578.13;;;8.74;54.90
70133;BME280;57495;49.922;7.966;2023-04-05T08:27:02;100569.84;;;9.01;55.39
70133;BME280;57495;49.922;7.966;2023-04-05T08:29:03;100570.06;;;8.98;53.20
70133;BME280;57495;49.922;7.966;2023-04-05T08:31:05;100572.84;;;8.97;50.94
70133;BME280;57495;49.922;7.966;2023-04-05T08:33:07;100567.03;;;8.56;50.83
70133;BME280;57495;49.922;7.966;2023-04-05T08:35:09;100567.91;;;8.68;52.58
70133;BME280;57495;49.922;7.966;2023-04-05T08:37:11;100572.75;;;9.21;49.50
70133;BME280;57495;49.922;7.966;2023-04-05T08:39:12;100577.34;;;9.30;49.55
70133;BME280;57495;49.922;7.966;2023-04-05T08:41:17;100565.84;;;9.07;50.76
70133;BME280;57495;49.922;7.966;2023-04-05T08:43:22;100565.72;;;9.31;48.69
70133;BME280;57495;49.922;7.966;2023-04-05T08:45:26;100567.66;;;9.52;51.39
70133;BME280;57495;49.922;7.966;2023-04-05T08:47:28;100563.53;;;9.14;48.89
70133;BME280;57495;49.922;7.966;2023-04-05T08:49:30;100571.28;;;9.05;50.70
70133;BME280;57495;49.922;7.966;2023-04-05T08:51:35;100579.06;;;9.31;47.27
70133;BME280;57495;49.922;7.966;2023-04-05T08:53:38;100573.97;;;9.39;49.26
70133;BME280;57495;49.922;7.966;2023-04-05T08:55:39;100562.28;;;9.74;47.88
70133;BME280;57495;49.922;7.966;2023-04-05T08:57:42;100568.88;;;10.14;46.59
70133;BME280;57495;49.922;7.966;2023-04-05T08:59:44;100560.81;;;10.25;47.98
70133;BME280;57495;49.922;7.966;2023-04-05T09:01:48;100557.88;;;10.39;47.80
70133;BME280;57495;49.922;7.966;2023-04-05T09:03:52;100565.88;;;10.72;47.33
70133;BME280;57495;49.922;7.966;2023-04-05T09:05:54;100559.63;;;11.13;46.04
70133;BME280;57495;49.922;7.966;2023-04-05T09:08:00;100561.13;;;11.06;45.06
70133;BME280;57495;49.922;7.966;2023-04-05T09:10:05;100555.19;;;11.02;42.95
70133;BME280;57495;49.922;7.966;2023-04-05T09:12:07;100559.94;;;10.36;42.40
70133;BME280;57495;49.922;7.966;2023-04-05T09:14:09;100562.56;;;9.37;45.21
70133;BME280;57495;49.922;7.966;2023-04-05T09:16:11;100549.88;;;10.28;45.17
70133;BME280;57495;49.922;7.966;2023-04-05T09:18:15;100551.19;;;10.87;46.52
70133;BME280;57495;49.922;7.966;2023-04-05T09:20:16;100544.88;;;11.19;45.16
70133;BME280;57495;49.922;7.966;2023-04-05T09:22:18;100554.41;;;11.12;43.67
70133;BME280;57495;49.922;7.966;2023-04-05T09:24:29;100549.06;;;11.12;43.69
70133;BME280;57495;49.922;7.966;2023-04-05T09:26:30;100546.38;;;11.43;43.04
70133;BME280;57495;49.922;7.966;2023-04-05T09:28:41;100539.13;;;11.64;42.57
70133;BME280;57495;49.922;7.966;2023-04-05T09:30:45;100540.44;;;11.79;43.48
70133;BME280;57495;49.922;7.966;2023-04-05T09:32:46;100543.84;;;11.91;42.38
70133;BME280;57495;49.922;7.966;2023-04-05T09:34:48;100546.97;;;11.56;40.80
70133;BME280;57495;49.922;7.966;2023-04-05T09:36:49;100544.28;;;12.06;43.25
70133;BME280;57495;49.922;7.966;2023-04-05T09:38:51;100542.31;;;12.08;41.69
70133;BME280;57495;49.922;7.966;2023-04-05T09:40:54;100547.13;;;12.34;41.88
70133;BME280;57495;49.922;7.966;2023-04-05T09:42:56;100544.47;;;12.14;40.11
70133;BME280;57495;49.922;7.966;2023-04-05T09:44:58;100534.13;;;12.49;40.06
70133;BME280;57495;49.922;7.966;2023-04-05T09:47:14;100538.69;;;11.28;41.14
70133;BME280;57495;49.922;7.966;2023-04-05T09:49:30;100547.09;;;11.45;40.20
70133;BME280;57495;49.922;7.966;2023-04-05T09:51:33;100545.59;;;11.61;39.01
70133;BME280;57495;49.922;7.966;2023-04-05T09:53:36;100540.88;;;11.85;39.87
70133;BME280;57495;49.922;7.966;2023-04-05T09:55:37;100532.28;;;11.91;37.79
70133;BME280;57495;49.922;7.966;2023-04-05T09:57:40;100535.72;;;12.22;40.37
70133;BME280;57495;49.922;7.966;2023-04-05T09:59:43;100535.13;;;12.77;40.64
70133;BME280;57495;49.922;7.966;2023-04-05T10:01:50;100537.72;;;12.96;39.53
70133;BME280;57495;49.922;7.966;2023-04-05T10:03:51;100529.69;;;12.96;39.76
70133;BME280;57495;49.922;7.966;2023-04-05T10:05:54;100524.22;;;13.26;40.59
70133;BME280;57495;49.922;7.966;2023-04-05T10:07:55;100529.16;;;13.30;39.04
70133;BME280;57495;49.922;7.966;2023-04-05T10:09:57;100529.97;;;13.41;40.37
70133;BME280;57495;49.922;7.966;2023-04-05T10:11:59;100528.63;;;13.17;39.66
70133;BME280;57495;49.922;7.966;2023-04-05T10:14:03;100522.38;;;13.26;39.07
70133;BME280;57495;49.922;7.966;2023-04-05T10:16:09;100525.75;;;13.28;36.61
70133;BME280;57495;49.922;7.966;2023-04-05T10:18:15;100529.38;;;13.47;37.49
70133;BME280;57495;49.922;7.966;2023-04-05T10:20:20;100519.78;;;12.40;39.59
70133;BME280;57495;49.922;7.966;2023-04-05T10:22:23;100521.66;;;12.87;41.11
70133;BME280;57495;49.922;7.966;2023-04-05T10:24:33;100523.06;;;12.91;36.56
70133;BME280;57495;49.922;7.966;2023-04-05T10:26:39;100515.25;;;13.45;39.07
70133;BME280;57495;49.922;7.966;2023-04-05T10:28:42;100525.91;;;13.37;37.63
70133;BME280;57495;49.922;7.966;2023-04-05T10:30:50;100522.09;;;12.82;35.88
70133;BME280;57495;49.922;7.966;2023-04-05T10:33:00;100519.78;;;12.97;36.09
70133;BME280;57495;49.922;7.966;2023-04-05T10:35:08;100518.06;;;13.43;36.82
70133;BME280;57495;49.922;7.966;2023-04-05T10:37:12;100514.28;;;12.99;35.97
70133;BME280;57495;49.922;7.966;2023-04-05T10:39:24;100512.47;;;13.27;38.16
70133;BME280;57495;49.922;7.966;2023-04-05T10:41:29;100508.69;;;13.57;35.65
70133;BME280;57495;49.922;7.966;2023-04-05T10:43:34;100503.63;;;13.17;36.31
70133;BME280;57495;49.922;7.966;2023-04-05T10:45:37;100502.22;;;13.50;36.07
70133;BME280;57495;49.922;7.966;2023-04-05T10:47:46;100513.75;;;12.85;37.59
70133;BME280;57495;49.922;7.966;2023-04-05T10:49:51;100503.84;;;12.95;36.36